sensor_id;sensor_type;location;lat;lon;timestamp;temperature;humidity
20125;DHT22;10223;50.862;4.360;2024-02-16T00:01:43;14.60;99.90
20125;DHT22;10223;50.862;4.360;2024-02-16T00:04:12;14.60;99.90
20125;DHT22;10223;50.862;4.360;2024-02-16T00:06:38;14.60;99.90
20125;DHT22;10223;50.862;4.360;2024-02-16T00:09:05;14.70;99.90
20125;DHT22;10223;50.862;4.360;2024-02-16T00:11:35;14.70;99.90
20125;DHT22;10223;50.862;4.360;2024-02-16T00:14:02;14.60;99.90
20125;DHT22;10223;50.862;4.360;2024-02-16T00:16:29;14.70;99.90
20125;DHT22;10223;50.862;4.360;2024-02-16T00:18:56;14.70;99.90
20125;DHT22;10223;50.862;4.360;2024-02-16T00:21:24;14.70;99.90
20125;DHT22;10223;50.862;4.360;2024-02-16T00:23:51;14.70;99.90
20125;DHT22;10223;50.862;4.360;2024-02-16T00:26:18;14.80;99.90
20125;DHT22;10223;50.862;4.360;2024-02-16T00:28:46;14.80;99.90
20125;DHT22;10223;50.862;4.360;2024-02-16T00:31:13;14.80;99.90
20125;DHT22;10223;50.862;4.360;2024-02-16T00:33:40;14.80;99.90
20125;DHT22;10223;50.862;4.360;2024-02-16T00:36:08;14.80;99.90
20125;DHT22;10223;50.862;4.360;2024-02-16T00:38:36;14.70;99.90
20125;DHT22;10223;50.862;4.360;2024-02-16T00:41:04;14.80;99.90
20125;DHT22;10223;50.862;4.360;2024-02-16T00:43:31;14.70;99.90
20125;DHT22;10223;50.862;4.360;2024-02-16T00:45:57;14.70;99.90
20125;DHT22;10223;50.862;4.360;2024-02-16T00:48:24;14.80;99.90
20125;DHT22;10223;50.862;4.360;2024-02-16T00:50:51;14.70;99.90
20125;DHT22;10223;50.862;4.360;2024-02-16T00:53:18;14.60;99.90
20125;DHT22;10223;50.862;4.360;2024-02-16T00:55:47;14.60;99.90
20125;DHT22;10223;50.862;4.360;2024-02-16T00:58:14;14.60;99.90
20125;DHT22;10223;50.862;4.360;2024-02-16T01:00:41;14.60;99.90
20125;DHT22;10223;50.862;4.360;2024-02-16T01:03:09;14.60;99.90
20125;DHT22;10223;50.862;4.360;2024-02-16T01:05:36;14.60;99.90
20125;DHT22;10223;50.862;4.360;2024-02-16T01:08:03;14.60;99.90
20125;DHT22;10223;50.862;4.360;2024-02-16T01:10:30;14.50;99.90
20125;DHT22;10223;50.862;4.360;2024-02-16T01:12:58;14.60;99.90
20125;DHT22;10223;50.862;4.360;2024-02-16T01:15:25;14.50;99.90
20125;DHT22;10223;50.862;4.360;2024-02-16T01:17:52;14.60;99.90
20125;DHT22;10223;50.862;4.360;2024-02-16T01:20:19;14.70;99.90
20125;DHT22;10223;50.862;4.360;2024-02-16T01:22:48;14.60;99.90
20125;DHT22;10223;50.862;4.360;2024-02-16T01:25:14;14.60;99.90
20125;DHT22;10223;50.862;4.360;2024-02-16T01:27:41;14.60;99.90
20125;DHT22;10223;50.862;4.360;2024-02-16T01:30:11;14.60;99.90
20125;DHT22;10223;50.862;4.360;2024-02-16T01:32:38;14.60;99.90
20125;DHT22;10223;50.862;4.360;2024-02-16T01:35:06;14.60;99.90
20125;DHT22;10223;50.862;4.360;2024-02-16T01:37:33;14.50;99.90
20125;DHT22;10223;50.862;4.360;2024-02-16T01:40:00;14.50;99.90
20125;DHT22;10223;50.862;4.360;2024-02-16T01:42:28;14.50;99.90
20125;DHT22;10223;50.862;4.360;2024-02-16T01:44:55;14.50;99.90
20125;DHT22;10223;50.862;4.360;2024-02-16T01:47:23;14.60;99.90
20125;DHT22;10223;50.862;4.360;2024-02-16T01:49:50;14.60;99.90
20125;DHT22;10223;50.862;4.360;2024-02-16T01:52:17;14.50;99.90
20125;DHT22;10223;50.862;4.360;2024-02-16T01:54:45;14.40;99.90
20125;DHT22;10223;50.862;4.360;2024-02-16T01:57:11;14.40;99.90
20125;DHT22;10223;50.862;4.360;2024-02-16T01:59:40;14.50;99.90
20125;DHT22;10223;50.862;4.360;2024-02-16T02:02:07;14.50;99.90
20125;DHT22;10223;50.862;4.360;2024-02-16T02:04:36;14.50;99.90
20125;DHT22;10223;50.862;4.360;2024-02-16T02:07:11;14.40;99.90
20125;DHT22;10223;50.862;4.360;2024-02-16T02:09:38;14.50;99.90
20125;DHT22;10223;50.862;4.360;2024-02-16T02:12:05;14.50;99.90
20125;DHT22;10223;50.862;4.360;2024-02-16T02:14:32;14.40;99.90
20125;DHT22;10223;50.862;4.360;2024-02-16T02:16:59;14.50;99.90
20125;DHT22;10223;50.862;4.360;2024-02-16T02:19:26;14.50;99.90
20125;DHT22;10223;50.862;4.360;2024-02-16T02:21:54;14.60;99.90
20125;DHT22;10223;50.862;4.360;2024-02-16T02:24:22;14.60;99.90
20125;DHT22;10223;50.862;4.360;2024-02-16T02:26:49;14.60;99.90
20125;DHT22;10223;50.862;4.360;2024-02-16T02:29:16;14.60;99.90
20125;DHT22;10223;50.862;4.360;2024-02-16T02:31:43;14.60;99.90
20125;DHT22;10223;50.862;4.360;2024-02-16T02:34:10;14.70;99.90
20125;DHT22;10223;50.862;4.360;2024-02-16T02:36:37;14.60;99.90
20125;DHT22;10223;50.862;4.360;2024-02-16T02:39:04;14.60;99.90
20125;DHT22;10223;50.862;4.360;2024-02-16T02:41:33;14.70;99.90
20125;DHT22;10223;50.862;4.360;2024-02-16T02:43:59;14.70;99.90
20125;DHT22;10223;50.862;4.360;2024-02-16T02:46:26;14.70;99.90
20125;DHT22;10223;50.862;4.360;2024-02-16T02:48:54;14.70;99.90
20125;DHT22;10223;50.862;4.360;2024-02-16T02:51:21;14.70;99.90
20125;DHT22;10223;50.862;4.360;2024-02-16T02:53:48;14.70;99.90
20125;DHT22;10223;50.862;4.360;2024-02-16T02:56:15;14.80;99.90
20125;DHT22;10223;50.862;4.360;2024-02-16T02:58:44;14.80;99.90
20125;DHT22;10223;50.862;4.360;2024-02-16T03:01:11;14.80;99.90
20125;DHT22;10223;50.862;4.360;2024-02-16T03:03:39;14.80;99.90
20125;DHT22;10223;50.862;4.360;2024-02-16T03:06:06;14.90;99.90
20125;DHT22;10223;50.862;4.360;2024-02-16T03:08:33;14.90;99.90
20125;DHT22;10223;50.862;4.360;2024-02-16T03:11:01;15.00;99.90
20125;DHT22;10223;50.862;4.360;2024-02-16T03:13:29;14.90;99.90
20125;DHT22;10223;50.862;4.360;2024-02-16T03:15:58;14.90;99.90
20125;DHT22;10223;50.862;4.360;2024-02-16T03:18:25;14.90;99.90
20125;DHT22;10223;50.862;4.360;2024-02-16T03:20:51;14.80;99.90
20125;DHT22;10223;50.862;4.360;2024-02-16T03:23:19;14.80;99.90
20125;DHT22;10223;50.862;4.360;2024-02-16T03:25:46;14.80;99.90
20125;DHT22;10223;50.862;4.360;2024-02-16T03:28:13;14.80;99.90
20125;DHT22;10223;50.862;4.360;2024-02-16T03:30:40;14.80;99.90
20125;DHT22;10223;50.862;4.360;2024-02-16T03:33:09;14.80;99.90
20125;DHT22;10223;50.862;4.360;2024-02-16T03:35:36;14.80;99.90
20125;DHT22;10223;50.862;4.360;2024-02-16T03:38:03;14.80;99.90
20125;DHT22;10223;50.862;4.360;2024-02-16T03:40:30;14.80;99.90
20125;DHT22;10223;50.862;4.360;2024-02-16T03:42:57;14.80;99.90
20125;DHT22;10223;50.862;4.360;2024-02-16T03:45:24;14.70;99.90
20125;DHT22;10223;50.862;4.360;2024-02-16T03:47:52;14.70;99.90
20125;DHT22;10223;50.862;4.360;2024-02-16T03:50:21;14.70;99.90
20125;DHT22;10223;50.862;4.360;2024-02-16T03:52:48;14.70;99.90
20125;DHT22;10223;50.862;4.360;2024-02-16T03:55:15;14.70;99.90
20125;DHT22;10223;50.862;4.360;2024-02-16T03:57:42;14.70;99.90
20125;DHT22;10223;50.862;4.360;2024-02-16T04:00:10;14.80;99.90
20125;DHT22;10223;50.862;4.360;2024-02-16T04:02:38;14.80;99.90
20125;DHT22;10223;50.862;4.360;2024-02-16T04:05:05;14.70;99.90
20125;DHT22;10223;50.862;4.360;2024-02-16T04:07:34;14.70;99.90
20125;DHT22;10223;50.862;4.360;2024-02-16T04:10:01;14.70;99.90
20125;DHT22;10223;50.862;4.360;2024-02-16T04:12:28;14.70;99.90
20125;DHT22;10223;50.862;4.360;2024-02-16T04:14:55;14.70;99.90
20125;DHT22;10223;50.862;4.360;2024-02-16T04:17:22;14.80;99.90
20125;DHT22;10223;50.862;4.360;2024-02-16T04:19:49;14.80;99.90
20125;DHT22;10223;50.862;4.360;2024-02-16T04:22:16;14.80;99.90
20125;DHT22;10223;50.862;4.360;2024-02-16T04:24:44;14.70;99.90
20125;DHT22;10223;50.862;4.360;2024-02-16T04:27:11;14.80;99.90
20125;DHT22;10223;50.862;4.360;2024-02-16T04:29:38;14.70;99.90
20125;DHT22;10223;50.862;4.360;2024-02-16T04:32:05;14.80;99.90
20125;DHT22;10223;50.862;4.360;2024-02-16T04:34:32;14.70;99.90
20125;DHT22;10223;50.862;4.360;2024-02-16T04:36:59;14.70;99.90
20125;DHT22;10223;50.862;4.360;2024-02-16T04:39:26;14.70;99.90
20125;DHT22;10223;50.862;4.360;2024-02-16T04:41:56;14.70;99.90
20125;DHT22;10223;50.862;4.360;2024-02-16T04:44:23;14.80;99.90
20125;DHT22;10223;50.862;4.360;2024-02-16T04:46:51;14.70;99.90
20125;DHT22;10223;50.862;4.360;2024-02-16T04:49:18;14.80;99.90
20125;DHT22;10223;50.862;4.360;2024-02-16T04:51:47;14.70;99.90
20125;DHT22;10223;50.862;4.360;2024-02-16T04:54:14;14.70;99.90
20125;DHT22;10223;50.862;4.360;2024-02-16T04:56:40;14.80;99.90
20125;DHT22;10223;50.862;4.360;2024-02-16T04:59:09;14.80;99.90
20125;DHT22;10223;50.862;4.360;2024-02-16T05:01:36;14.80;99.90
20125;DHT22;10223;50.862;4.360;2024-02-16T05:04:03;14.80;99.90
20125;DHT22;10223;50.862;4.360;2024-02-16T05:06:30;14.90;99.90
20125;DHT22;10223;50.862;4.360;2024-02-16T05:08:57;14.80;99.90
20125;DHT22;10223;50.862;4.360;2024-02-16T05:11:24;14.90;99.90
20125;DHT22;10223;50.862;4.360;2024-02-16T05:13:51;14.80;99.90
20125;DHT22;10223;50.862;4.360;2024-02-16T05:16:19;14.80;99.90
20125;DHT22;10223;50.862;4.360;2024-02-16T05:18:46;14.80;99.90
20125;DHT22;10223;50.862;4.360;2024-02-16T05:21:13;14.80;99.90
20125;DHT22;10223;50.862;4.360;2024-02-16T05:23:40;14.90;99.90
20125;DHT22;10223;50.862;4.360;2024-02-16T05:26:07;14.80;99.90
20125;DHT22;10223;50.862;4.360;2024-02-16T05:28:34;14.80;99.90
20125;DHT22;10223;50.862;4.360;2024-02-16T05:31:13;14.80;99.90
20125;DHT22;10223;50.862;4.360;2024-02-16T05:33:43;14.90;99.90
20125;DHT22;10223;50.862;4.360;2024-02-16T05:36:10;14.80;99.90
20125;DHT22;10223;50.862;4.360;2024-02-16T05:38:37;14.80;99.90
20125;DHT22;10223;50.862;4.360;2024-02-16T05:41:08;14.80;99.90
20125;DHT22;10223;50.862;4.360;2024-02-16T05:43:36;14.80;99.90
20125;DHT22;10223;50.862;4.360;2024-02-16T05:46:04;14.80;99.90
20125;DHT22;10223;50.862;4.360;2024-02-16T05:48:32;14.80;99.90
20125;DHT22;10223;50.862;4.360;2024-02-16T05:51:02;14.80;99.90
20125;DHT22;10223;50.862;4.360;2024-02-16T05:53:29;14.80;99.90
20125;DHT22;10223;50.862;4.360;2024-02-16T05:55:56;14.70;99.90
20125;DHT22;10223;50.862;4.360;2024-02-16T05:58:24;14.70;99.90
20125;DHT22;10223;50.862;4.360;2024-02-16T06:00:51;14.70;99.90
20125;DHT22;10223;50.862;4.360;2024-02-16T06:03:18;14.70;99.90
20125;DHT22;10223;50.862;4.360;2024-02-16T06:05:44;14.70;99.90
20125;DHT22;10223;50.862;4.360;2024-02-16T06:08:13;14.70;99.90
20125;DHT22;10223;50.862;4.360;2024-02-16T06:10:41;14.70;99.90
20125;DHT22;10223;50.862;4.360;2024-02-16T06:13:08;14.70;99.90
20125;DHT22;10223;50.862;4.360;2024-02-16T06:15:35;14.60;99.90
20125;DHT22;10223;50.862;4.360;2024-02-16T06:18:03;14.70;99.90
20125;DHT22;10223;50.862;4.360;2024-02-16T06:20:30;14.60;99.90
20125;DHT22;10223;50.862;4.360;2024-02-16T06:22:57;14.60;99.90
20125;DHT22;10223;50.862;4.360;2024-02-16T06:25:25;14.50;99.90
20125;DHT22;10223;50.862;4.360;2024-02-16T06:27:52;14.40;99.90
20125;DHT22;10223;50.862;4.360;2024-02-16T06:30:19;14.40;99.90
20125;DHT22;10223;50.862;4.360;2024-02-16T06:32:45;14.50;99.90
20125;DHT22;10223;50.862;4.360;2024-02-16T06:35:13;14.40;99.90
20125;DHT22;10223;50.862;4.360;2024-02-16T06:37:40;14.40;99.90
20125;DHT22;10223;50.862;4.360;2024-02-16T06:40:08;14.30;99.90
20125;DHT22;10223;50.862;4.360;2024-02-16T06:42:37;14.30;99.90
20125;DHT22;10223;50.862;4.360;2024-02-16T06:45:08;14.30;99.90
20125;DHT22;10223;50.862;4.360;2024-02-16T06:47:35;14.20;99.90
20125;DHT22;10223;50.862;4.360;2024-02-16T06:50:02;14.20;99.90
20125;DHT22;10223;50.862;4.360;2024-02-16T06:52:29;14.10;99.90
20125;DHT22;10223;50.862;4.360;2024-02-16T06:54:56;14.10;99.90
20125;DHT22;10223;50.862;4.360;2024-02-16T06:57:22;14.10;99.90
20125;DHT22;10223;50.862;4.360;2024-02-16T06:59:52;14.00;99.90
20125;DHT22;10223;50.862;4.360;2024-02-16T07:02:19;14.10;99.90
20125;DHT22;10223;50.862;4.360;2024-02-16T07:04:46;14.00;99.90
20125;DHT22;10223;50.862;4.360;2024-02-16T07:07:13;14.00;99.90
20125;DHT22;10223;50.862;4.360;2024-02-16T07:09:40;13.90;99.90
20125;DHT22;10223;50.862;4.360;2024-02-16T07:12:07;13.90;99.90
20125;DHT22;10223;50.862;4.360;2024-02-16T07:14:34;13.80;99.90
20125;DHT22;10223;50.862;4.360;2024-02-16T07:17:03;13.90;99.90
20125;DHT22;10223;50.862;4.360;2024-02-16T07:19:33;13.90;99.90
20125;DHT22;10223;50.862;4.360;2024-02-16T07:22:00;13.90;99.90
20125;DHT22;10223;50.862;4.360;2024-02-16T07:24:26;13.90;99.90
20125;DHT22;10223;50.862;4.360;2024-02-16T07:26:54;13.90;99.90
20125;DHT22;10223;50.862;4.360;2024-02-16T07:29:24;13.90;99.90
20125;DHT22;10223;50.862;4.360;2024-02-16T07:31:50;13.90;99.90
20125;DHT22;10223;50.862;4.360;2024-02-16T07:34:19;14.00;99.90
20125;DHT22;10223;50.862;4.360;2024-02-16T07:36:46;14.00;99.90
20125;DHT22;10223;50.862;4.360;2024-02-16T07:39:13;14.10;99.90
20125;DHT22;10223;50.862;4.360;2024-02-16T07:41:40;14.00;99.90
20125;DHT22;10223;50.862;4.360;2024-02-16T07:44:07;14.00;99.90
20125;DHT22;10223;50.862;4.360;2024-02-16T07:46:40;14.00;99.90
20125;DHT22;10223;50.862;4.360;2024-02-16T07:49:07;14.00;99.90
20125;DHT22;10223;50.862;4.360;2024-02-16T07:51:37;14.10;99.90
20125;DHT22;10223;50.862;4.360;2024-02-16T07:54:05;14.00;99.90
20125;DHT22;10223;50.862;4.360;2024-02-16T07:56:33;14.00;99.90
20125;DHT22;10223;50.862;4.360;2024-02-16T07:59:00;14.10;99.90
20125;DHT22;10223;50.862;4.360;2024-02-16T08:01:27;14.10;99.90
20125;DHT22;10223;50.862;4.360;2024-02-16T08:03:54;14.10;99.90
20125;DHT22;10223;50.862;4.360;2024-02-16T08:06:25;14.10;99.90
20125;DHT22;10223;50.862;4.360;2024-02-16T08:08:54;14.10;99.90
20125;DHT22;10223;50.862;4.360;2024-02-16T08:11:20;14.10;99.90
20125;DHT22;10223;50.862;4.360;2024-02-16T08:13:47;14.10;99.90
20125;DHT22;10223;50.862;4.360;2024-02-16T08:16:14;14.10;99.90
20125;DHT22;10223;50.862;4.360;2024-02-16T08:18:43;14.10;99.90
20125;DHT22;10223;50.862;4.360;2024-02-16T08:21:11;14.10;99.90
20125;DHT22;10223;50.862;4.360;2024-02-16T08:23:37;14.10;99.90
20125;DHT22;10223;50.862;4.360;2024-02-16T08:26:06;14.10;99.90
20125;DHT22;10223;50.862;4.360;2024-02-16T08:28:33;14.10;99.90
20125;DHT22;10223;50.862;4.360;2024-02-16T08:31:00;14.10;99.90
20125;DHT22;10223;50.862;4.360;2024-02-16T08:33:27;14.10;99.90
20125;DHT22;10223;50.862;4.360;2024-02-16T08:35:53;14.10;99.90
20125;DHT22;10223;50.862;4.360;2024-02-16T08:38:20;14.00;99.90
20125;DHT22;10223;50.862;4.360;2024-02-16T08:40:47;13.90;99.90
20125;DHT22;10223;50.862;4.360;2024-02-16T08:43:18;13.80;99.90
20125;DHT22;10223;50.862;4.360;2024-02-16T08:45:45;13.60;99.90
20125;DHT22;10223;50.862;4.360;2024-02-16T08:48:13;13.50;99.90
20125;DHT22;10223;50.862;4.360;2024-02-16T08:50:40;13.50;99.90
20125;DHT22;10223;50.862;4.360;2024-02-16T08:53:07;13.50;99.90
20125;DHT22;10223;50.862;4.360;2024-02-16T08:55:35;13.50;99.90
20125;DHT22;10223;50.862;4.360;2024-02-16T08:58:03;13.40;99.90
20125;DHT22;10223;50.862;4.360;2024-02-16T09:00:31;13.50;99.90
20125;DHT22;10223;50.862;4.360;2024-02-16T09:02:58;13.50;99.90
20125;DHT22;10223;50.862;4.360;2024-02-16T09:05:28;13.60;99.90
20125;DHT22;10223;50.862;4.360;2024-02-16T09:07:55;13.60;99.90
20125;DHT22;10223;50.862;4.360;2024-02-16T09:10:22;13.60;99.90
20125;DHT22;10223;50.862;4.360;2024-02-16T09:12:49;13.60;99.90
20125;DHT22;10223;50.862;4.360;2024-02-16T09:15:17;13.60;99.90
20125;DHT22;10223;50.862;4.360;2024-02-16T09:17:45;13.60;99.90
20125;DHT22;10223;50.862;4.360;2024-02-16T09:20:12;13.60;99.90
20125;DHT22;10223;50.862;4.360;2024-02-16T09:22:40;13.70;99.90
20125;DHT22;10223;50.862;4.360;2024-02-16T09:25:07;13.60;99.90
20125;DHT22;10223;50.862;4.360;2024-02-16T09:27:34;13.70;99.90
20125;DHT22;10223;50.862;4.360;2024-02-16T09:30:06;13.60;99.90
20125;DHT22;10223;50.862;4.360;2024-02-16T09:32:36;13.50;99.90
20125;DHT22;10223;50.862;4.360;2024-02-16T09:35:05;13.60;99.90
20125;DHT22;10223;50.862;4.360;2024-02-16T09:37:32;13.60;99.90
20125;DHT22;10223;50.862;4.360;2024-02-16T09:39:58;13.60;99.90
20125;DHT22;10223;50.862;4.360;2024-02-16T09:42:25;13.50;99.90
20125;DHT22;10223;50.862;4.360;2024-02-16T09:44:54;13.50;99.90
20125;DHT22;10223;50.862;4.360;2024-02-16T09:47:22;13.60;99.90
20125;DHT22;10223;50.862;4.360;2024-02-16T09:49:51;13.50;99.90
20125;DHT22;10223;50.862;4.360;2024-02-16T09:52:19;13.60;99.90
20125;DHT22;10223;50.862;4.360;2024-02-16T09:54:46;13.60;99.90
20125;DHT22;10223;50.862;4.360;2024-02-16T09:57:16;13.60;99.90
20125;DHT22;10223;50.862;4.360;2024-02-16T09:59:43;13.60;99.90
20125;DHT22;10223;50.862;4.360;2024-02-16T10:02:11;13.70;99.90
20125;DHT22;10223;50.862;4.360;2024-02-16T10:04:38;13.70;99.90
20125;DHT22;10223;50.862;4.360;2024-02-16T10:07:05;13.70;99.90
20125;DHT22;10223;50.862;4.360;2024-02-16T10:09:33;13.70;99.90
20125;DHT22;10223;50.862;4.360;2024-02-16T10:12:00;13.70;99.90
20125;DHT22;10223;50.862;4.360;2024-02-16T10:14:27;13.70;99.90
20125;DHT22;10223;50.862;4.360;2024-02-16T10:17:00;13.70;99.90
20125;DHT22;10223;50.862;4.360;2024-02-16T10:19:29;13.80;99.90
20125;DHT22;10223;50.862;4.360;2024-02-16T10:22:08;13.80;99.90
20125;DHT22;10223;50.862;4.360;2024-02-16T10:24:37;13.80;99.90
20125;DHT22;10223;50.862;4.360;2024-02-16T10:27:05;13.80;99.90
20125;DHT22;10223;50.862;4.360;2024-02-16T10:29:32;13.80;99.90
20125;DHT22;10223;50.862;4.360;2024-02-16T10:32:00;13.90;99.90
20125;DHT22;10223;50.862;4.360;2024-02-16T10:34:28;13.80;99.90
20125;DHT22;10223;50.862;4.360;2024-02-16T10:36:57;13.80;99.90
20125;DHT22;10223;50.862;4.360;2024-02-16T10:39:25;13.80;99.90
20125;DHT22;10223;50.862;4.360;2024-02-16T10:41:54;13.80;99.90
20125;DHT22;10223;50.862;4.360;2024-02-16T10:44:23;13.80;99.90
20125;DHT22;10223;50.862;4.360;2024-02-16T10:46:50;13.80;99.90
20125;DHT22;10223;50.862;4.360;2024-02-16T10:49:18;13.80;99.90
20125;DHT22;10223;50.862;4.360;2024-02-16T10:51:47;13.80;99.90
20125;DHT22;10223;50.862;4.360;2024-02-16T10:54:18;13.80;99.90
20125;DHT22;10223;50.862;4.360;2024-02-16T10:56:45;13.90;99.90
20125;DHT22;10223;50.862;4.360;2024-02-16T10:59:13;13.80;99.90
20125;DHT22;10223;50.862;4.360;2024-02-16T11:01:44;13.90;99.90
20125;DHT22;10223;50.862;4.360;2024-02-16T11:04:13;13.80;99.90
20125;DHT22;10223;50.862;4.360;2024-02-16T11:06:47;13.80;99.90
20125;DHT22;10223;50.862;4.360;2024-02-16T11:09:26;13.70;99.90
20125;DHT22;10223;50.862;4.360;2024-02-16T11:11:54;13.70;99.90
20125;DHT22;10223;50.862;4.360;2024-02-16T11:14:23;13.70;99.90
20125;DHT22;10223;50.862;4.360;2024-02-16T11:16:54;13.60;99.90
20125;DHT22;10223;50.862;4.360;2024-02-16T11:19:22;13.60;99.90
20125;DHT22;10223;50.862;4.360;2024-02-16T11:21:58;13.60;99.90
20125;DHT22;10223;50.862;4.360;2024-02-16T11:24:30;13.60;99.90
20125;DHT22;10223;50.862;4.360;2024-02-16T11:26:58;13.50;99.90
20125;DHT22;10223;50.862;4.360;2024-02-16T11:29:31;13.50;99.90
20125;DHT22;10223;50.862;4.360;2024-02-16T11:31:58;13.40;99.90
20125;DHT22;10223;50.862;4.360;2024-02-16T11:34:25;13.40;99.90
20125;DHT22;10223;50.862;4.360;2024-02-16T11:36:53;13.40;99.90
20125;DHT22;10223;50.862;4.360;2024-02-16T11:39:20;13.40;99.90
20125;DHT22;10223;50.862;4.360;2024-02-16T11:41:48;13.40;99.90
20125;DHT22;10223;50.862;4.360;2024-02-16T11:44:14;13.30;99.90
20125;DHT22;10223;50.862;4.360;2024-02-16T11:46:44;13.40;99.90
20125;DHT22;10223;50.862;4.360;2024-02-16T11:49:11;13.40;99.90
20125;DHT22;10223;50.862;4.360;2024-02-16T11:51:38;13.30;99.90
20125;DHT22;10223;50.862;4.360;2024-02-16T11:54:06;13.40;99.90
20125;DHT22;10223;50.862;4.360;2024-02-16T11:56:33;13.40;99.90
20125;DHT22;10223;50.862;4.360;2024-02-16T11:59:00;13.40;99.90
20125;DHT22;10223;50.862;4.360;2024-02-16T12:01:30;13.30;99.90
20125;DHT22;10223;50.862;4.360;2024-02-16T12:04:01;13.20;99.90
20125;DHT22;10223;50.862;4.360;2024-02-16T12:06:29;13.30;99.90
20125;DHT22;10223;50.862;4.360;2024-02-16T12:08:56;13.30;99.90
20125;DHT22;10223;50.862;4.360;2024-02-16T12:11:23;13.30;99.90
20125;DHT22;10223;50.862;4.360;2024-02-16T12:13:50;13.30;99.90
20125;DHT22;10223;50.862;4.360;2024-02-16T12:16:19;13.20;99.90
20125;DHT22;10223;50.862;4.360;2024-02-16T12:18:46;13.10;99.90
20125;DHT22;10223;50.862;4.360;2024-02-16T12:21:18;13.10;99.90
20125;DHT22;10223;50.862;4.360;2024-02-16T12:23:46;13.20;99.90
20125;DHT22;10223;50.862;4.360;2024-02-16T12:26:13;13.30;99.90
20125;DHT22;10223;50.862;4.360;2024-02-16T12:28:40;13.30;99.90
20125;DHT22;10223;50.862;4.360;2024-02-16T12:31:08;13.20;99.90
20125;DHT22;10223;50.862;4.360;2024-02-16T12:33:35;13.10;99.90
20125;DHT22;10223;50.862;4.360;2024-02-16T12:36:01;13.20;99.90
20125;DHT22;10223;50.862;4.360;2024-02-16T12:38:30;13.20;99.90
20125;DHT22;10223;50.862;4.360;2024-02-16T12:40:57;13.20;99.90
20125;DHT22;10223;50.862;4.360;2024-02-16T12:43:25;13.30;99.90
20125;DHT22;10223;50.862;4.360;2024-02-16T12:45:52;13.30;99.90
20125;DHT22;10223;50.862;4.360;2024-02-16T12:48:19;13.30;99.90
20125;DHT22;10223;50.862;4.360;2024-02-16T12:50:46;13.30;99.90
20125;DHT22;10223;50.862;4.360;2024-02-16T12:53:14;13.20;99.90
20125;DHT22;10223;50.862;4.360;2024-02-16T12:55:43;13.20;99.90
20125;DHT22;10223;50.862;4.360;2024-02-16T12:58:10;13.20;99.90
20125;DHT22;10223;50.862;4.360;2024-02-16T13:00:38;13.20;99.90
20125;DHT22;10223;50.862;4.360;2024-02-16T13:03:05;13.20;99.90
20125;DHT22;10223;50.862;4.360;2024-02-16T13:05:32;13.20;99.90
20125;DHT22;10223;50.862;4.360;2024-02-16T13:07:59;13.20;99.90
20125;DHT22;10223;50.862;4.360;2024-02-16T13:10:26;13.20;99.90
20125;DHT22;10223;50.862;4.360;2024-02-16T13:12:54;13.30;99.90
20125;DHT22;10223;50.862;4.360;2024-02-16T13:15:21;13.30;99.90
20125;DHT22;10223;50.862;4.360;2024-02-16T13:17:48;13.20;99.90
20125;DHT22;10223;50.862;4.360;2024-02-16T13:20:15;13.30;99.90
20125;DHT22;10223;50.862;4.360;2024-02-16T13:22:42;13.30;99.90
20125;DHT22;10223;50.862;4.360;2024-02-16T13:25:09;13.30;99.90
20125;DHT22;10223;50.862;4.360;2024-02-16T13:27:36;13.30;99.90
20125;DHT22;10223;50.862;4.360;2024-02-16T13:30:06;13.30;99.90
20125;DHT22;10223;50.862;4.360;2024-02-16T13:32:33;13.30;99.90
20125;DHT22;10223;50.862;4.360;2024-02-16T13:35:04;13.50;99.90
20125;DHT22;10223;50.862;4.360;2024-02-16T13:37:31;13.50;99.90
20125;DHT22;10223;50.862;4.360;2024-02-16T13:39:58;13.50;99.90
20125;DHT22;10223;50.862;4.360;2024-02-16T13:42:26;13.60;99.90
20125;DHT22;10223;50.862;4.360;2024-02-16T13:44:53;13.70;99.90
20125;DHT22;10223;50.862;4.360;2024-02-16T13:47:22;13.80;99.90
20125;DHT22;10223;50.862;4.360;2024-02-16T13:49:49;13.80;99.90
20125;DHT22;10223;50.862;4.360;2024-02-16T13:52:18;13.80;99.90
20125;DHT22;10223;50.862;4.360;2024-02-16T13:54:44;13.90;99.90
20125;DHT22;10223;50.862;4.360;2024-02-16T13:57:12;14.00;99.90
20125;DHT22;10223;50.862;4.360;2024-02-16T13:59:39;14.10;99.90
20125;DHT22;10223;50.862;4.360;2024-02-16T14:02:07;14.30;99.90
20125;DHT22;10223;50.862;4.360;2024-02-16T14:04:36;14.40;99.90
20125;DHT22;10223;50.862;4.360;2024-02-16T14:07:03;14.50;99.90
20125;DHT22;10223;50.862;4.360;2024-02-16T14:09:30;14.50;99.90
20125;DHT22;10223;50.862;4.360;2024-02-16T14:11:57;14.60;99.90
20125;DHT22;10223;50.862;4.360;2024-02-16T14:14:25;14.60;99.90
20125;DHT22;10223;50.862;4.360;2024-02-16T14:16:53;14.60;99.90
20125;DHT22;10223;50.862;4.360;2024-02-16T14:19:20;14.50;99.90
20125;DHT22;10223;50.862;4.360;2024-02-16T14:21:48;14.50;99.90
20125;DHT22;10223;50.862;4.360;2024-02-16T14:24:15;14.40;99.90
20125;DHT22;10223;50.862;4.360;2024-02-16T14:26:43;14.50;99.90
20125;DHT22;10223;50.862;4.360;2024-02-16T14:29:12;14.50;99.90
20125;DHT22;10223;50.862;4.360;2024-02-16T14:31:39;14.30;99.90
20125;DHT22;10223;50.862;4.360;2024-02-16T14:34:06;14.40;99.90
20125;DHT22;10223;50.862;4.360;2024-02-16T14:36:33;14.40;99.90
20125;DHT22;10223;50.862;4.360;2024-02-16T14:39:01;14.50;99.90
20125;DHT22;10223;50.862;4.360;2024-02-16T14:41:28;14.40;99.90
20125;DHT22;10223;50.862;4.360;2024-02-16T14:43:55;14.40;99.90
20125;DHT22;10223;50.862;4.360;2024-02-16T14:46:25;14.40;99.90
20125;DHT22;10223;50.862;4.360;2024-02-16T14:48:52;14.40;99.90
20125;DHT22;10223;50.862;4.360;2024-02-16T14:51:19;14.40;99.90
20125;DHT22;10223;50.862;4.360;2024-02-16T14:53:46;14.40;99.90
20125;DHT22;10223;50.862;4.360;2024-02-16T14:56:15;14.50;99.90
20125;DHT22;10223;50.862;4.360;2024-02-16T14:58:44;14.50;99.90
20125;DHT22;10223;50.862;4.360;2024-02-16T15:01:12;14.50;99.90
20125;DHT22;10223;50.862;4.360;2024-02-16T15:03:38;14.60;99.90
20125;DHT22;10223;50.862;4.360;2024-02-16T15:06:06;14.70;99.90
20125;DHT22;10223;50.862;4.360;2024-02-16T15:08:33;14.70;99.90
20125;DHT22;10223;50.862;4.360;2024-02-16T15:11:00;14.80;99.90
20125;DHT22;10223;50.862;4.360;2024-02-16T15:13:28;14.90;99.90
20125;DHT22;10223;50.862;4.360;2024-02-16T15:15:58;14.80;99.90
20125;DHT22;10223;50.862;4.360;2024-02-16T15:18:25;14.70;99.90
20125;DHT22;10223;50.862;4.360;2024-02-16T15:20:51;14.60;99.90
20125;DHT22;10223;50.862;4.360;2024-02-16T15:23:18;14.50;99.90
20125;DHT22;10223;50.862;4.360;2024-02-16T15:25:45;14.50;99.90
20125;DHT22;10223;50.862;4.360;2024-02-16T15:28:12;14.60;99.90
20125;DHT22;10223;50.862;4.360;2024-02-16T15:30:41;14.60;99.90
20125;DHT22;10223;50.862;4.360;2024-02-16T15:33:08;14.70;99.90